Time,TemperatureF,DewpointF,PressureIn,WindDirection,WindDirectionDegrees,WindSpeedMPH,WindSpeedGustMPH,Humidity,HourlyPrecipIn,Conditions,Clouds,dailyrainin,SoftwareType,DateUTC
2013-06-04 00:01:00,61.8,55.0,29.86,North,360,0.0,-999.0,79,-99.99,,,0.00,weatherlink.com 1.10,2013-06-04 04:01:00,
2013-06-04 00:03:00,61.7,55.1,29.86,North,360,0.0,0.0,79,0.00,,,0.00,Wunderground v.1.15,2013-06-04 04:03:00,
2013-06-04 00:08:00,61.3,55.1,29.86,WSW,257,0.0,2.0,80,0.00,,,0.00,Wunderground v.1.15,2013-06-04 04:08:00,
2013-06-04 00:17:00,60.8,54.0,29.87,WSW,257,0.0,-999.0,79,-99.99,,,0.00,weatherlink.com 1.10,2013-06-04 04:17:00,
2013-06-04 00:18:00,60.7,54.1,29.87,WSW,257,0.0,0.0,79,0.00,,,0.00,Wunderground v.1.15,2013-06-04 04:18:00,
2013-06-04 00:23:00,60.4,54.2,29.88,WSW,257,0.0,0.0,80,0.00,,,0.00,Wunderground v.1.15,2013-06-04 04:23:00,
2013-06-04 00:28:00,60.2,54.3,29.88,WSW,257,0.0,0.0,81,0.00,,,0.00,Wunderground v.1.15,2013-06-04 04:28:00,
2013-06-04 00:38:00,59.9,53.4,29.89,NW,310,0.0,0.0,79,0.00,,,0.00,Wunderground v.1.15,2013-06-04 04:38:00,
2013-06-04 00:43:00,59.8,53.3,29.89,NW,310,0.0,0.0,79,0.00,,,0.00,Wunderground v.1.15,2013-06-04 04:43:00,
2013-06-04 00:48:00,59.6,52.4,29.89,NW,321,0.0,0.0,77,0.00,,,0.00,Wunderground v.1.15,2013-06-04 04:48:00,
2013-06-04 00:58:00,59.1,51.9,29.89,West,281,0.0,0.0,77,0.00,,,0.00,Wunderground v.1.15,2013-06-04 04:58:00,
2013-06-04 01:08:00,58.8,52.0,29.88,WNW,302,0.0,0.0,78,0.00,,,0.00,Wunderground v.1.15,2013-06-04 05:08:00,
2013-06-04 01:13:00,58.4,51.2,29.89,West,277,0.0,0.0,77,0.00,,,0.00,Wunderground v.1.15,2013-06-04 05:13:00,
2013-06-04 01:18:00,58.1,51.0,29.89,WNW,284,0.0,-999.0,77,-99.99,,,0.00,weatherlink.com 1.10,2013-06-04 05:18:00,
2013-06-04 01:28:00,57.6,50.8,29.88,WNW,300,0.0,0.0,78,0.00,,,0.00,Wunderground v.1.15,2013-06-04 05:28:00,
2013-06-04 01:33:00,57.4,51.0,29.89,WNW,300,1.0,-999.0,78,-99.99,,,0.00,weatherlink.com 1.10,2013-06-04 05:33:00,
2013-06-04 01:43:00,56.9,50.1,29.89,North,355,0.0,0.0,78,0.00,,,0.00,Wunderground v.1.15,2013-06-04 05:43:00,
2013-06-04 01:48:00,56.7,49.9,29.89,NW,306,1.0,1.0,78,0.00,,,0.00,Wunderground v.1.15,2013-06-04 05:48:00,
2013-06-04 01:58:00,56.2,49.4,29.89,West,279,1.0,2.0,78,0.00,,,0.00,Wunderground v.1.15,2013-06-04 05:58:00,
2013-06-04 02:03:00,56.0,49.2,29.89,WNW,288,0.0,2.0,78,0.00,,,0.00,Wunderground v.1.15,2013-06-04 06:03:00,
2013-06-04 02:08:00,55.9,49.1,29.89,North,355,1.0,2.0,78,0.00,,,0.00,Wunderground v.1.15,2013-06-04 06:08:00,
2013-06-04 02:18:00,55.5,48.4,29.89,WNW,302,1.0,1.0,77,0.00,,,0.00,Wunderground v.1.15,2013-06-04 06:18:00,
2013-06-04 02:28:00,55.1,48.4,29.90,NW,315,1.0,1.0,78,0.00,,,0.00,Wunderground v.1.15,2013-06-04 06:28:00,
2013-06-04 02:34:00,54.8,48.0,29.90,West,268,0.0,-999.0,78,-99.99,,,0.00,weatherlink.com 1.10,2013-06-04 06:34:00,
2013-06-04 02:43:00,54.4,48.0,29.90,WNW,290,1.0,1.0,79,0.00,,,0.00,Wunderground v.1.15,2013-06-04 06:43:00,
2013-06-04 02:48:00,54.2,47.8,29.90,NW,309,0.0,1.0,79,0.00,,,0.00,Wunderground v.1.15,2013-06-04 06:48:00,
2013-06-04 02:58:00,53.8,47.8,29.90,NW,311,0.0,0.0,80,0.00,,,0.00,Wunderground v.1.15,2013-06-04 06:58:00,
2013-06-04 03:05:00,53.6,48.0,29.89,NW,311,0.0,-999.0,80,-99.99,,,0.00,weatherlink.com 1.10,2013-06-04 07:05:00,
2013-06-04 03:13:00,53.4,47.7,29.89,NW,311,0.0,0.0,81,0.00,,,0.00,Wunderground v.1.15,2013-06-04 07:13:00,
2013-06-04 03:18:00,53.3,47.6,29.89,ENE,66,0.0,0.0,81,0.00,,,0.00,Wunderground v.1.15,2013-06-04 07:18:00,
2013-06-04 03:28:00,53.1,47.4,29.89,NNE,22,1.0,1.0,81,0.00,,,0.00,Wunderground v.1.15,2013-06-04 07:28:00,
2013-06-04 03:33:00,53.0,47.0,29.89,West,279,1.0,1.0,80,0.00,,,0.00,Wunderground v.1.15,2013-06-04 07:33:00,
2013-06-04 03:43:00,53.0,47.0,29.89,NW,317,0.0,0.0,80,0.00,,,0.00,Wunderground v.1.15,2013-06-04 07:43:00,
2013-06-04 03:48:00,52.8,46.8,29.89,West,281,0.0,0.0,80,0.00,,,0.00,Wunderground v.1.15,2013-06-04 07:48:00,
2013-06-04 03:58:00,52.5,46.5,29.90,NW,305,0.0,1.0,80,0.00,,,0.00,Wunderground v.1.15,2013-06-04 07:58:00,
2013-06-04 04:03:00,52.3,46.3,29.89,WSW,237,0.0,1.0,80,0.00,,,0.00,Wunderground v.1.15,2013-06-04 08:03:00,
2013-06-04 04:13:00,52.1,46.1,29.90,NE,34,0.0,0.0,80,0.00,,,0.00,Wunderground v.1.15,2013-06-04 08:13:00,
2013-06-04 04:18:00,52.1,46.1,29.90,NW,325,0.0,0.0,80,0.00,,,0.00,Wunderground v.1.15,2013-06-04 08:18:00,
2013-06-04 04:36:00,51.9,46.0,29.91,NE,51,0.0,-999.0,80,-99.99,,,0.00,weatherlink.com 1.10,2013-06-04 08:36:00,
2013-06-04 04:51:00,51.6,45.0,29.91,NNW,338,2.0,-999.0,79,-99.99,,,0.00,weatherlink.com 1.10,2013-06-04 08:51:00,
2013-06-04 05:06:00,51.5,46.0,29.91,North,350,0.0,-999.0,80,-99.99,,,0.00,weatherlink.com 1.10,2013-06-04 09:06:00,
2013-06-04 05:21:00,51.2,46.0,29.92,NW,310,1.0,-999.0,81,-99.99,,,0.00,weatherlink.com 1.10,2013-06-04 09:21:00,
2013-06-04 05:51:00,50.9,45.0,29.93,West,260,0.0,-999.0,81,-99.99,,,0.00,weatherlink.com 1.10,2013-06-04 09:51:00,
2013-06-04 06:06:00,51.0,45.0,29.93,North,11,0.0,-999.0,81,-99.99,,,0.00,weatherlink.com 1.10,2013-06-04 10:06:00,
2013-06-04 06:21:00,51.2,46.0,29.94,WNW,294,1.0,-999.0,82,-99.99,,,0.00,weatherlink.com 1.10,2013-06-04 10:21:00,
2013-06-04 06:36:00,51.3,46.0,29.95,NW,317,0.0,-999.0,82,-99.99,,,0.00,weatherlink.com 1.10,2013-06-04 10:36:00,
2013-06-04 06:51:00,51.5,46.0,29.95,NNE,17,0.0,-999.0,82,-99.99,,,0.00,weatherlink.com 1.10,2013-06-04 10:51:00,
2013-06-04 07:06:00,52.1,46.0,29.95,WNW,291,2.0,-999.0,81,-99.99,,,0.00,weatherlink.com 1.10,2013-06-04 11:06:00,
2013-06-04 07:21:00,52.6,47.0,29.96,NNE,33,0.0,-999.0,80,-99.99,,,0.00,weatherlink.com 1.10,2013-06-04 11:21:00,
2013-06-04 07:36:00,53.2,47.0,29.96,NNE,13,0.0,-999.0,79,-99.99,,,0.00,weatherlink.com 1.10,2013-06-04 11:36:00,
2013-06-04 08:06:00,54.4,48.0,29.97,NW,322,1.0,-999.0,78,-99.99,,,0.00,weatherlink.com 1.10,2013-06-04 12:06:00,
2013-06-04 08:21:00,55.5,47.0,29.98,NW,317,1.0,-999.0,74,-99.99,,,0.00,weatherlink.com 1.10,2013-06-04 12:21:00,
2013-06-04 08:36:00,56.8,47.0,29.98,WNW,300,0.0,-999.0,71,-99.99,,,0.00,weatherlink.com 1.10,2013-06-04 12:36:00,
2013-06-04 08:51:00,57.7,48.0,29.98,NW,310,5.0,-999.0,70,-99.99,,,0.00,weatherlink.com 1.10,2013-06-04 12:51:00,
2013-06-04 09:06:00,58.8,48.0,29.98,NNW,334,0.0,-999.0,68,-99.99,,,0.00,weatherlink.com 1.10,2013-06-04 13:06:00,
2013-06-04 09:21:00,59.7,49.0,29.99,WNW,284,0.0,-999.0,67,-99.99,,,0.00,weatherlink.com 1.10,2013-06-04 13:21:00,
2013-06-04 09:36:00,60.9,49.0,30.00,NW,304,0.0,-999.0,66,-99.99,,,0.00,weatherlink.com 1.10,2013-06-04 13:36:00,
2013-06-04 09:51:00,61.5,49.0,30.00,NW,304,3.0,-999.0,64,-99.99,,,0.00,weatherlink.com 1.10,2013-06-04 13:51:00,
2013-06-04 10:06:00,62.4,49.0,30.00,NW,308,0.0,-999.0,62,-99.99,,,0.00,weatherlink.com 1.10,2013-06-04 14:06:00,
2013-06-04 10:21:00,63.0,51.0,29.99,NE,53,0.0,-999.0,64,-99.99,,,0.00,weatherlink.com 1.10,2013-06-04 14:21:00,
2013-06-04 10:37:00,63.5,49.0,30.00,NNW,333,1.0,-999.0,59,-99.99,,,0.00,weatherlink.com 1.10,2013-06-04 14:37:00,
2013-06-04 10:52:00,63.8,49.0,30.00,West,272,0.0,-999.0,59,-99.99,,,0.00,weatherlink.com 1.10,2013-06-04 14:52:00,
2013-06-04 11:07:00,64.2,49.0,30.00,ESE,117,1.0,-999.0,59,-99.99,,,0.00,weatherlink.com 1.10,2013-06-04 15:07:00,
2013-06-04 11:22:00,64.7,50.0,30.00,NNW,329,2.0,-999.0,60,-99.99,,,0.00,weatherlink.com 1.10,2013-06-04 15:22:00,
2013-06-04 11:37:00,65.4,50.0,30.00,East,95,0.0,-999.0,58,-99.99,,,0.00,weatherlink.com 1.10,2013-06-04 15:37:00,
2013-06-04 11:52:00,66.3,51.0,30.01,NNW,327,1.0,-999.0,58,-99.99,,,0.00,weatherlink.com 1.10,2013-06-04 15:52:00,
2013-06-04 12:07:00,67.0,52.0,30.01,North,10,0.0,-999.0,59,-99.99,,,0.00,weatherlink.com 1.10,2013-06-04 16:07:00,
2013-06-04 12:22:00,67.0,51.0,30.00,NW,323,0.0,-999.0,56,-99.99,,,0.00,weatherlink.com 1.10,2013-06-04 16:22:00,
2013-06-04 12:37:00,67.4,51.0,30.00,NW,311,1.0,-999.0,57,-99.99,,,0.00,weatherlink.com 1.10,2013-06-04 16:37:00,
2013-06-04 12:52:00,67.4,52.0,30.00,North,360,0.0,-999.0,59,-99.99,,,0.00,weatherlink.com 1.10,2013-06-04 16:52:00,
2013-06-04 13:07:00,68.6,51.0,29.99,WNW,302,0.0,-999.0,54,-99.99,,,0.00,weatherlink.com 1.10,2013-06-04 17:07:00,
2013-06-04 13:22:00,68.7,52.0,29.99,West,273,1.0,-999.0,55,-99.99,,,0.00,weatherlink.com 1.10,2013-06-04 17:22:00,
2013-06-04 13:37:00,69.0,52.0,29.98,East,87,2.0,-999.0,54,-99.99,,,0.00,weatherlink.com 1.10,2013-06-04 17:37:00,
2013-06-04 13:52:00,70.0,53.0,29.98,WNW,291,2.0,-999.0,55,-99.99,,,0.00,weatherlink.com 1.10,2013-06-04 17:52:00,
2013-06-04 14:07:00,70.3,54.0,29.98,NW,306,0.0,-999.0,56,-99.99,,,0.00,weatherlink.com 1.10,2013-06-04 18:07:00,
2013-06-04 14:22:00,70.8,53.0,29.98,WNW,290,0.0,-999.0,54,-99.99,,,0.00,weatherlink.com 1.10,2013-06-04 18:22:00,
2013-06-04 14:37:00,70.9,53.0,29.98,WNW,291,0.0,-999.0,54,-99.99,,,0.00,weatherlink.com 1.10,2013-06-04 18:37:00,
2013-06-04 14:52:00,71.6,52.0,29.97,NNW,346,0.0,-999.0,51,-99.99,,,0.00,weatherlink.com 1.10,2013-06-04 18:52:00,
2013-06-04 15:07:00,71.8,51.0,29.98,WNW,296,0.0,-999.0,49,-99.99,,,0.00,weatherlink.com 1.10,2013-06-04 19:07:00,
2013-06-04 15:22:00,72.7,52.0,29.98,NNW,341,0.0,-999.0,49,-99.99,,,0.00,weatherlink.com 1.10,2013-06-04 19:22:00,
2013-06-04 15:37:00,72.9,54.0,29.97,North,11,0.0,-999.0,51,-99.99,,,0.00,weatherlink.com 1.10,2013-06-04 19:37:00,
2013-06-04 15:52:00,73.1,53.0,29.97,NW,317,0.0,-999.0,50,-99.99,,,0.00,weatherlink.com 1.10,2013-06-04 19:52:00,
2013-06-04 16:07:00,73.7,54.0,29.97,East,96,0.0,-999.0,50,-99.99,,,0.00,weatherlink.com 1.10,2013-06-04 20:07:00,
2013-06-04 16:18:00,73.9,52.4,29.97,WNW,297,0.0,0.0,47,0.00,,,0.00,Wunderground v.1.15,2013-06-04 20:18:00,
2013-06-04 16:23:00,73.9,51.2,29.97,ESE,118,1.0,1.0,45,0.00,,,0.00,Wunderground v.1.15,2013-06-04 20:23:00,
2013-06-04 16:28:00,73.7,51.0,29.96,NNW,329,1.0,3.0,45,0.00,,,0.00,Wunderground v.1.15,2013-06-04 20:28:00,
2013-06-04 16:33:00,73.3,50.7,29.97,ESE,107,1.0,3.0,45,0.00,,,0.00,Wunderground v.1.15,2013-06-04 20:33:00,
2013-06-04 16:38:00,73.5,51.4,29.97,NNW,335,1.0,1.0,46,0.00,,,0.00,Wunderground v.1.15,2013-06-04 20:38:00,
2013-06-04 16:48:00,73.5,50.9,29.97,NW,321,0.0,0.0,45,0.00,,,0.00,Wunderground v.1.15,2013-06-04 20:48:00,
2013-06-04 16:53:00,73.2,50.0,29.97,NW,304,1.0,1.0,44,0.00,,,0.00,Wunderground v.1.15,2013-06-04 20:53:00,
2013-06-04 16:58:00,73.3,51.3,29.97,North,5,0.0,0.0,46,0.00,,,0.00,Wunderground v.1.15,2013-06-04 20:58:00,
2013-06-04 17:03:00,73.7,51.0,29.97,West,268,0.0,2.0,45,0.00,,,0.00,Wunderground v.1.15,2013-06-04 21:03:00,
2013-06-04 17:09:00,73.9,50.0,29.97,North,5,0.0,-999.0,43,-99.99,,,0.00,weatherlink.com 1.10,2013-06-04 21:09:00,
2013-06-04 17:18:00,74.2,52.1,29.97,North,5,0.0,0.0,46,0.00,,,0.00,Wunderground v.1.15,2013-06-04 21:18:00,
2013-06-04 17:23:00,74.3,51.0,29.97,WNW,296,0.0,0.0,44,0.00,,,0.00,Wunderground v.1.15,2013-06-04 21:23:00,
2013-06-04 17:33:00,74.3,51.0,29.97,NNE,14,0.0,0.0,44,0.00,,,0.00,Wunderground v.1.15,2013-06-04 21:33:00,
2013-06-04 17:38:00,74.5,51.8,29.97,NW,318,0.0,0.0,45,0.00,,,0.00,Wunderground v.1.15,2013-06-04 21:38:00,
2013-06-04 17:48:00,74.3,51.0,29.98,NNW,329,0.0,0.0,44,0.00,,,0.00,Wunderground v.1.15,2013-06-04 21:48:00,
2013-06-04 17:53:00,74.1,50.2,29.98,NNW,346,0.0,0.0,43,0.00,,,0.00,Wunderground v.1.15,2013-06-04 21:53:00,
2013-06-04 17:58:00,74.1,50.2,29.98,WNW,291,0.0,3.0,43,0.00,,,0.00,Wunderground v.1.15,2013-06-04 21:58:00,
2013-06-04 18:03:00,73.9,50.6,29.98,WSW,245,0.0,0.0,44,0.00,,,0.00,Wunderground v.1.15,2013-06-04 22:03:00,
2013-06-04 18:09:00,73.6,51.0,29.98,SE,136,0.0,-999.0,45,-99.99,,,0.00,weatherlink.com 1.10,2013-06-04 22:09:00,
2013-06-04 18:18:00,73.7,49.8,29.98,NW,315,0.0,0.0,43,0.00,,,0.00,Wunderground v.1.15,2013-06-04 22:18:00,
2013-06-04 18:23:00,73.5,49.0,29.98,West,269,0.0,0.0,42,0.00,,,0.00,Wunderground v.1.15,2013-06-04 22:23:00,
2013-06-04 18:33:00,73.2,49.4,29.99,North,5,0.0,0.0,43,0.00,,,0.00,Wunderground v.1.15,2013-06-04 22:33:00,
2013-06-04 18:38:00,72.7,48.3,29.99,NE,56,0.0,0.0,42,0.00,,,0.00,Wunderground v.1.15,2013-06-04 22:38:00,
2013-06-04 18:43:00,72.1,48.4,29.99,NW,311,0.0,0.0,43,0.00,,,0.00,Wunderground v.1.15,2013-06-04 22:43:00,
2013-06-04 18:53:00,71.2,47.6,29.99,WSW,256,0.0,0.0,43,0.00,,,0.00,Wunderground v.1.15,2013-06-04 22:53:00,
2013-06-04 18:58:00,70.8,47.8,29.99,WSW,256,0.0,0.0,44,0.00,,,0.00,Wunderground v.1.15,2013-06-04 22:58:00,
2013-06-04 19:03:00,70.3,46.7,29.99,WNW,300,0.0,0.0,43,0.00,,,0.00,Wunderground v.1.15,2013-06-04 23:03:00,
2013-06-04 19:08:00,70.0,48.3,30.00,WNW,301,0.0,0.0,46,0.00,,,0.00,Wunderground v.1.15,2013-06-04 23:08:00,
2013-06-04 19:13:00,69.6,47.3,30.00,WNW,301,0.0,0.0,45,0.00,,,0.00,Wunderground v.1.15,2013-06-04 23:13:00,
2013-06-04 19:23:00,68.9,47.3,30.00,WNW,301,0.0,0.0,46,0.00,,,0.00,Wunderground v.1.15,2013-06-04 23:23:00,
2013-06-04 19:28:00,68.6,49.2,30.00,WNW,300,0.0,0.0,50,0.00,,,0.00,Wunderground v.1.15,2013-06-04 23:28:00,
2013-06-04 19:33:00,68.3,47.8,30.01,WNW,300,0.0,0.0,48,0.00,,,0.00,Wunderground v.1.15,2013-06-04 23:33:00,
2013-06-04 19:40:00,67.8,49.0,30.00,WNW,301,0.0,-999.0,51,-99.99,,,0.00,weatherlink.com 1.10,2013-06-04 23:40:00,
2013-06-04 19:48:00,67.0,48.8,30.01,WNW,301,0.0,0.0,52,0.00,,,0.00,Wunderground v.1.15,2013-06-04 23:48:00,
2013-06-04 19:53:00,66.5,48.3,30.01,WNW,300,0.0,0.0,52,0.00,,,0.00,Wunderground v.1.15,2013-06-04 23:53:00,
2013-06-04 20:03:00,65.6,48.5,30.01,WNW,300,0.0,0.0,54,0.00,,,0.00,Wunderground v.1.15,2013-06-05 00:03:00,
2013-06-04 20:08:00,65.1,48.5,30.02,WNW,301,0.0,0.0,55,0.00,,,0.00,Wunderground v.1.15,2013-06-05 00:08:00,
2013-06-04 20:13:00,64.5,49.8,30.02,WNW,300,0.0,0.0,59,0.00,,,0.00,Wunderground v.1.15,2013-06-05 00:13:00,
2013-06-04 20:18:00,64.1,50.4,30.02,WNW,300,0.0,0.0,61,0.00,,,0.00,Wunderground v.1.15,2013-06-05 00:18:00,
2013-06-04 20:25:00,63.5,50.0,30.02,WNW,301,0.0,-999.0,62,-99.99,,,0.00,weatherlink.com 1.10,2013-06-05 00:25:00,
2013-06-04 20:33:00,62.7,51.2,30.02,WNW,300,0.0,0.0,66,0.00,,,0.00,Wunderground v.1.15,2013-06-05 00:33:00,
2013-06-04 20:38:00,62.2,49.9,30.02,WNW,301,0.0,0.0,64,0.00,,,0.00,Wunderground v.1.15,2013-06-05 00:38:00,
2013-06-04 20:48:00,61.4,47.8,30.03,WNW,300,0.0,0.0,61,0.00,,,0.00,Wunderground v.1.15,2013-06-05 00:48:00,
2013-06-04 20:53:00,61.1,50.1,30.03,WNW,301,0.0,0.0,67,0.00,,,0.00,Wunderground v.1.15,2013-06-05 00:53:00,
2013-06-04 20:58:00,60.6,49.2,30.04,WNW,301,0.0,0.0,66,0.00,,,0.00,Wunderground v.1.15,2013-06-05 00:58:00,
2013-06-04 21:03:00,60.1,49.5,30.04,WNW,301,0.0,0.0,68,0.00,,,0.00,Wunderground v.1.15,2013-06-05 01:03:00,
2013-06-04 21:08:00,59.7,49.1,30.05,WNW,301,0.0,0.0,68,0.00,,,0.00,Wunderground v.1.15,2013-06-05 01:08:00,
2013-06-04 21:18:00,59.0,49.6,30.05,WNW,300,0.0,0.0,71,0.00,,,0.00,Wunderground v.1.15,2013-06-05 01:18:00,
2013-06-04 21:23:00,59.0,50.7,30.06,WNW,300,0.0,0.0,74,0.00,,,0.00,Wunderground v.1.15,2013-06-05 01:23:00,
2013-06-04 21:28:00,58.7,50.8,30.06,WNW,300,0.0,0.0,75,0.00,,,0.00,Wunderground v.1.15,2013-06-05 01:28:00,
2013-06-04 21:33:00,58.4,50.1,30.06,WNW,301,0.0,0.0,74,0.00,,,0.00,Wunderground v.1.15,2013-06-05 01:33:00,
2013-06-04 21:40:00,58.1,48.0,30.07,WNW,301,0.0,-999.0,70,-99.99,,,0.00,weatherlink.com 1.10,2013-06-05 01:40:00,
2013-06-04 21:48:00,58.3,49.3,30.07,WNW,300,0.0,0.0,72,0.00,,,0.00,Wunderground v.1.15,2013-06-05 01:48:00,
2013-06-04 21:53:00,58.3,50.0,30.07,WNW,300,0.0,0.0,74,0.00,,,0.00,Wunderground v.1.15,2013-06-05 01:53:00,
2013-06-04 22:03:00,58.1,48.4,30.07,WNW,301,0.0,0.0,70,0.00,,,0.00,Wunderground v.1.15,2013-06-05 02:03:00,
2013-06-04 22:08:00,58.2,49.6,30.07,WNW,301,0.0,0.0,73,0.00,,,0.00,Wunderground v.1.15,2013-06-05 02:08:00,
2013-06-04 22:13:00,58.1,50.9,30.08,WNW,301,0.0,0.0,77,0.00,,,0.00,Wunderground v.1.15,2013-06-05 02:13:00,
2013-06-04 22:18:00,57.8,50.3,30.08,WNW,301,0.0,0.0,76,0.00,,,0.00,Wunderground v.1.15,2013-06-05 02:18:00,
2013-06-04 22:25:00,57.6,49.0,30.08,WNW,301,0.0,-999.0,74,-99.99,,,0.00,weatherlink.com 1.10,2013-06-05 02:25:00,
2013-06-04 22:33:00,57.3,49.4,30.08,WNW,301,0.0,0.0,75,0.00,,,0.00,Wunderground v.1.15,2013-06-05 02:33:00,
2013-06-04 22:38:00,57.2,49.3,30.08,WNW,301,0.0,0.0,75,0.00,,,0.00,Wunderground v.1.15,2013-06-05 02:38:00,
2013-06-04 22:43:00,57.2,48.6,30.08,WNW,301,0.0,0.0,73,0.00,,,0.00,Wunderground v.1.15,2013-06-05 02:43:00,
2013-06-04 22:53:00,57.6,50.1,30.08,WNW,300,0.0,0.0,76,0.00,,,0.00,Wunderground v.1.15,2013-06-05 02:53:00,
2013-06-04 22:58:00,57.6,48.3,30.09,WNW,300,0.0,0.0,71,0.00,,,0.00,Wunderground v.1.15,2013-06-05 02:58:00,
2013-06-04 23:03:00,57.6,47.5,30.09,WNW,301,0.0,0.0,69,0.00,,,0.00,Wunderground v.1.15,2013-06-05 03:03:00,
2013-06-04 23:11:00,57.5,50.0,30.09,WNW,300,0.0,-999.0,75,-99.99,,,0.00,weatherlink.com 1.10,2013-06-05 03:11:00,
2013-06-04 23:23:00,56.7,49.2,30.09,WNW,300,0.0,0.0,76,0.00,,,0.00,Wunderground v.1.15,2013-06-05 03:23:00,
2013-06-04 23:28:00,56.5,49.4,30.10,WNW,301,0.0,0.0,77,0.00,,,0.00,Wunderground v.1.15,2013-06-05 03:28:00,
2013-06-04 23:38:00,56.4,49.6,30.10,WNW,300,0.0,0.0,78,0.00,,,0.00,Wunderground v.1.15,2013-06-05 03:38:00,
2013-06-04 23:43:00,56.3,50.2,30.10,WNW,301,0.0,0.0,80,0.00,,,0.00,Wunderground v.1.15,2013-06-05 03:43:00,
2013-06-04 23:48:00,56.3,49.9,30.10,WNW,301,0.0,0.0,79,0.00,,,0.00,Wunderground v.1.15,2013-06-05 03:48:00,
2013-06-04 23:56:00,56.2,49.0,30.10,WNW,300,0.0,-999.0,77,-99.99,,,0.00,weatherlink.com 1.10,2013-06-05 03:56:00,